Terminal Aerodrome Forecast
Issued by NWS

Home | Current Version | Previous Version | Text Only | Print | Product List | Glossary On
Versions: 1 2 3 4 5 6 7 8 9 10 11 12 13 14 15 16 17 18 19 20 21 22 23
000
FTUS43 KPAH 042340
TAFCGI
TAF
KCGI 042340Z 0500/0524 01015G22KT 1/2SM SN VV010
      TEMPO 0500/0503 1/4SM +SN VV008
     FM050300 01015G22KT 2SM -SN BR OVC008
     FM050500 01013G19KT 4SM -SN BR OVC010
     FM050700 01010KT 6SM BR SCT025 OVC150
     FM051600 36010KT P6SM BKN015=

USA.gov is the U.S. government's official web portal to all federal, state and local government web resources and services.